sensor_id;sensor_type;location;lat;lon;timestamp;pressure;altitude;pressure_sealevel;temperature;humidity
13027;BME280;6580;42.680;23.324;2022-07-06T00:00:29;95143.44;;;22.76;100.00
13027;BME280;6580;42.680;23.324;2022-07-06T00:02:55;95155.72;;;22.78;100.00
13027;BME280;6580;42.680;23.324;2022-07-06T00:05:24;95157.59;;;22.78;100.00
13027;BME280;6580;42.680;23.324;2022-07-06T00:07:52;95150.75;;;22.75;100.00
13027;BME280;6580;42.680;23.324;2022-07-06T00:10:19;95150.13;;;22.62;100.00
13027;BME280;6580;42.680;23.324;2022-07-06T00:12:46;95157.38;;;22.79;100.00
13027;BME280;6580;42.680;23.324;2022-07-06T00:15:15;95165.63;;;22.61;100.00
13027;BME280;6580;42.680;23.324;2022-07-06T00:17:43;95160.53;;;22.65;100.00
13027;BME280;6580;42.680;23.324;2022-07-06T00:20:11;95174.19;;;22.99;100.00
13027;BME280;6580;42.680;23.324;2022-07-06T00:22:38;95179.38;;;23.01;100.00
13027;BME280;6580;42.680;23.324;2022-07-06T00:25:07;95185.16;;;23.04;100.00
13027;BME280;6580;42.680;23.324;2022-07-06T00:27:35;95195.97;;;23.11;100.00
13027;BME280;6580;42.680;23.324;2022-07-06T00:30:02;95191.81;;;23.20;100.00
13027;BME280;6580;42.680;23.324;2022-07-06T00:32:29;95195.13;;;23.22;100.00
13027;BME280;6580;42.680;23.324;2022-07-06T00:34:58;95200.56;;;23.22;100.00
13027;BME280;6580;42.680;23.324;2022-07-06T00:37:25;95193.94;;;23.18;100.00
13027;BME280;6580;42.680;23.324;2022-07-06T00:39:52;95195.72;;;23.24;100.00
13027;BME280;6580;42.680;23.324;2022-07-06T00:42:19;95198.19;;;23.14;100.00
13027;BME280;6580;42.680;23.324;2022-07-06T00:44:46;95195.47;;;23.14;100.00
13027;BME280;6580;42.680;23.324;2022-07-06T00:47:15;95199.63;;;23.16;100.00
13027;BME280;6580;42.680;23.324;2022-07-06T00:49:42;95199.38;;;23.18;100.00
13027;BME280;6580;42.680;23.324;2022-07-06T00:52:28;95196.59;;;22.95;100.00
13027;BME280;6580;42.680;23.324;2022-07-06T00:55:05;95198.16;;;22.91;100.00
13027;BME280;6580;42.680;23.324;2022-07-06T00:57:32;95192.63;;;23.20;100.00
13027;BME280;6580;42.680;23.324;2022-07-06T00:59:59;95182.84;;;23.08;100.00
13027;BME280;6580;42.680;23.324;2022-07-06T01:02:26;95182.03;;;22.78;100.00
13027;BME280;6580;42.680;23.324;2022-07-06T01:04:53;95173.69;;;22.91;100.00
13027;BME280;6580;42.680;23.324;2022-07-06T01:07:20;95144.28;;;22.88;100.00
13027;BME280;6580;42.680;23.324;2022-07-06T01:09:49;95140.22;;;22.67;100.00
13027;BME280;6580;42.680;23.324;2022-07-06T01:12:16;95148.97;;;22.69;100.00
13027;BME280;6580;42.680;23.324;2022-07-06T01:14:44;95147.44;;;22.73;100.00
13027;BME280;6580;42.680;23.324;2022-07-06T01:17:12;95150.31;;;22.90;100.00
13027;BME280;6580;42.680;23.324;2022-07-06T01:19:40;95155.38;;;22.98;100.00
13027;BME280;6580;42.680;23.324;2022-07-06T01:22:08;95136.00;;;22.83;100.00
13027;BME280;6580;42.680;23.324;2022-07-06T01:24:38;95132.94;;;22.91;100.00
13027;BME280;6580;42.680;23.324;2022-07-06T01:27:06;95154.44;;;23.04;100.00
13027;BME280;6580;42.680;23.324;2022-07-06T01:29:34;95147.09;;;22.70;100.00
13027;BME280;6580;42.680;23.324;2022-07-06T01:32:02;95148.75;;;22.71;100.00
13027;BME280;6580;42.680;23.324;2022-07-06T01:34:35;95155.50;;;23.03;100.00
13027;BME280;6580;42.680;23.324;2022-07-06T01:37:02;95159.06;;;22.92;100.00
13027;BME280;6580;42.680;23.324;2022-07-06T01:39:30;95159.06;;;22.92;100.00
13027;BME280;6580;42.680;23.324;2022-07-06T01:41:57;95151.72;;;23.04;100.00
13027;BME280;6580;42.680;23.324;2022-07-06T01:44:27;95151.91;;;23.09;100.00
13027;BME280;6580;42.680;23.324;2022-07-06T01:46:55;95148.47;;;23.13;100.00
13027;BME280;6580;42.680;23.324;2022-07-06T01:49:23;95152.31;;;22.83;100.00
13027;BME280;6580;42.680;23.324;2022-07-06T01:51:50;95155.38;;;22.86;100.00
13027;BME280;6580;42.680;23.324;2022-07-06T01:54:17;95163.16;;;22.83;100.00
13027;BME280;6580;42.680;23.324;2022-07-06T01:56:45;95159.22;;;22.56;100.00
13027;BME280;6580;42.680;23.324;2022-07-06T01:59:12;95169.78;;;22.35;100.00
13027;BME280;6580;42.680;23.324;2022-07-06T02:01:39;95167.56;;;22.43;100.00
13027;BME280;6580;42.680;23.324;2022-07-06T02:04:06;95166.25;;;22.16;100.00
13027;BME280;6580;42.680;23.324;2022-07-06T02:06:35;95151.03;;;22.15;100.00
13027;BME280;6580;42.680;23.324;2022-07-06T02:09:02;95165.09;;;21.94;100.00
13027;BME280;6580;42.680;23.324;2022-07-06T02:11:29;95163.00;;;22.55;100.00
13027;BME280;6580;42.680;23.324;2022-07-06T02:13:57;95169.22;;;22.44;100.00
13027;BME280;6580;42.680;23.324;2022-07-06T02:16:24;95162.97;;;22.44;100.00
13027;BME280;6580;42.680;23.324;2022-07-06T02:18:51;95167.00;;;22.53;100.00
13027;BME280;6580;42.680;23.324;2022-07-06T02:21:18;95165.91;;;22.24;100.00
13027;BME280;6580;42.680;23.324;2022-07-06T02:23:45;95164.03;;;22.43;100.00
13027;BME280;6580;42.680;23.324;2022-07-06T02:26:12;95160.84;;;22.46;100.00
13027;BME280;6580;42.680;23.324;2022-07-06T02:28:40;95159.09;;;22.51;100.00
13027;BME280;6580;42.680;23.324;2022-07-06T02:31:08;95140.69;;;22.53;100.00
13027;BME280;6580;42.680;23.324;2022-07-06T02:33:39;95152.06;;;22.84;100.00
13027;BME280;6580;42.680;23.324;2022-07-06T02:36:06;95153.00;;;22.67;100.00
13027;BME280;6580;42.680;23.324;2022-07-06T02:38:33;95164.41;;;22.58;100.00
13027;BME280;6580;42.680;23.324;2022-07-06T02:41:00;95164.25;;;22.41;100.00
13027;BME280;6580;42.680;23.324;2022-07-06T02:43:28;95163.63;;;22.39;100.00
13027;BME280;6580;42.680;23.324;2022-07-06T02:45:55;95162.59;;;22.11;100.00
13027;BME280;6580;42.680;23.324;2022-07-06T02:48:24;95161.88;;;21.86;100.00
13027;BME280;6580;42.680;23.324;2022-07-06T02:50:51;95159.34;;;22.02;100.00
13027;BME280;6580;42.680;23.324;2022-07-06T02:53:18;95162.53;;;21.99;100.00
13027;BME280;6580;42.680;23.324;2022-07-06T02:55:45;95170.47;;;22.12;100.00
13027;BME280;6580;42.680;23.324;2022-07-06T02:58:12;95163.59;;;21.98;100.00
13027;BME280;6580;42.680;23.324;2022-07-06T03:00:39;95160.13;;;21.91;100.00
13027;BME280;6580;42.680;23.324;2022-07-06T03:03:05;95165.84;;;22.01;100.00
13027;BME280;6580;42.680;23.324;2022-07-06T03:05:34;95159.91;;;22.22;100.00
13027;BME280;6580;42.680;23.324;2022-07-06T03:08:00;95149.09;;;22.04;100.00
13027;BME280;6580;42.680;23.324;2022-07-06T03:10:27;95167.97;;;21.99;100.00
13027;BME280;6580;42.680;23.324;2022-07-06T03:12:54;95147.91;;;22.00;100.00
13027;BME280;6580;42.680;23.324;2022-07-06T03:15:21;95161.31;;;21.95;100.00
13027;BME280;6580;42.680;23.324;2022-07-06T03:17:48;95170.19;;;22.02;100.00
13027;BME280;6580;42.680;23.324;2022-07-06T03:20:15;95173.22;;;21.94;100.00
13027;BME280;6580;42.680;23.324;2022-07-06T03:22:44;95173.25;;;21.76;100.00
13027;BME280;6580;42.680;23.324;2022-07-06T03:25:13;95189.78;;;21.50;100.00
13027;BME280;6580;42.680;23.324;2022-07-06T03:27:39;95195.06;;;21.46;100.00
13027;BME280;6580;42.680;23.324;2022-07-06T03:30:08;95188.16;;;21.67;100.00
13027;BME280;6580;42.680;23.324;2022-07-06T03:32:35;95191.00;;;21.90;100.00
13027;BME280;6580;42.680;23.324;2022-07-06T03:35:02;95191.00;;;21.90;100.00
13027;BME280;6580;42.680;23.324;2022-07-06T03:37:29;95195.16;;;22.11;100.00
13027;BME280;6580;42.680;23.324;2022-07-06T03:39:57;95185.91;;;22.12;100.00
13027;BME280;6580;42.680;23.324;2022-07-06T03:42:25;95190.72;;;21.98;100.00
13027;BME280;6580;42.680;23.324;2022-07-06T03:44:52;95194.84;;;22.01;100.00
13027;BME280;6580;42.680;23.324;2022-07-06T03:47:19;95199.03;;;22.15;100.00
13027;BME280;6580;42.680;23.324;2022-07-06T03:49:46;95186.41;;;22.09;100.00
13027;BME280;6580;42.680;23.324;2022-07-06T03:52:13;95192.34;;;22.17;100.00
13027;BME280;6580;42.680;23.324;2022-07-06T03:54:40;95200.13;;;22.25;100.00
13027;BME280;6580;42.680;23.324;2022-07-06T03:57:08;95195.31;;;22.27;100.00
13027;BME280;6580;42.680;23.324;2022-07-06T03:59:36;95194.44;;;22.33;100.00
13027;BME280;6580;42.680;23.324;2022-07-06T04:02:03;95201.19;;;22.24;100.00
13027;BME280;6580;42.680;23.324;2022-07-06T04:04:30;95208.16;;;22.38;100.00
13027;BME280;6580;42.680;23.324;2022-07-06T04:06:58;95209.22;;;22.19;100.00
13027;BME280;6580;42.680;23.324;2022-07-06T04:09:25;95205.50;;;22.14;100.00
13027;BME280;6580;42.680;23.324;2022-07-06T04:11:53;95209.78;;;22.21;100.00
13027;BME280;6580;42.680;23.324;2022-07-06T04:14:21;95208.38;;;22.37;100.00
13027;BME280;6580;42.680;23.324;2022-07-06T04:16:48;95210.09;;;22.31;99.71
13027;BME280;6580;42.680;23.324;2022-07-06T04:19:15;95214.91;;;22.29;99.64
13027;BME280;6580;42.680;23.324;2022-07-06T04:21:42;95207.34;;;22.49;98.90
13027;BME280;6580;42.680;23.324;2022-07-06T04:24:09;95214.53;;;22.44;99.38
13027;BME280;6580;42.680;23.324;2022-07-06T04:26:35;95219.28;;;22.48;97.18
13027;BME280;6580;42.680;23.324;2022-07-06T04:29:02;95215.00;;;22.23;97.05
13027;BME280;6580;42.680;23.324;2022-07-06T04:31:31;95215.97;;;22.28;98.05
13027;BME280;6580;42.680;23.324;2022-07-06T04:33:58;95230.13;;;22.30;99.09
13027;BME280;6580;42.680;23.324;2022-07-06T04:36:32;95228.06;;;22.14;97.95
13027;BME280;6580;42.680;23.324;2022-07-06T04:38:58;95232.44;;;22.15;97.99
13027;BME280;6580;42.680;23.324;2022-07-06T04:41:25;95240.19;;;21.94;99.61
13027;BME280;6580;42.680;23.324;2022-07-06T04:43:52;95245.84;;;21.92;99.56
13027;BME280;6580;42.680;23.324;2022-07-06T04:46:19;95247.97;;;21.90;100.00
13027;BME280;6580;42.680;23.324;2022-07-06T04:48:47;95254.84;;;22.11;100.00
13027;BME280;6580;42.680;23.324;2022-07-06T04:51:15;95249.44;;;22.40;100.00
13027;BME280;6580;42.680;23.324;2022-07-06T04:53:41;95270.34;;;22.40;100.00
13027;BME280;6580;42.680;23.324;2022-07-06T04:56:10;95272.06;;;22.16;99.91
13027;BME280;6580;42.680;23.324;2022-07-06T04:58:37;95268.44;;;21.86;100.00
13027;BME280;6580;42.680;23.324;2022-07-06T05:01:04;95239.66;;;21.85;100.00
13027;BME280;6580;42.680;23.324;2022-07-06T05:03:30;95276.72;;;22.27;100.00
13027;BME280;6580;42.680;23.324;2022-07-06T05:06:00;95273.94;;;22.16;99.69
13027;BME280;6580;42.680;23.324;2022-07-06T05:08:27;95279.38;;;22.34;99.37
13027;BME280;6580;42.680;23.324;2022-07-06T05:10:53;95276.03;;;22.50;98.95
13027;BME280;6580;42.680;23.324;2022-07-06T05:13:20;95278.81;;;22.61;97.40
13027;BME280;6580;42.680;23.324;2022-07-06T05:15:47;95273.72;;;22.82;95.44
13027;BME280;6580;42.680;23.324;2022-07-06T05:18:15;95282.72;;;22.65;95.91
13027;BME280;6580;42.680;23.324;2022-07-06T05:20:42;95276.19;;;22.55;96.83
13027;BME280;6580;42.680;23.324;2022-07-06T05:23:11;95287.34;;;22.76;95.38
13027;BME280;6580;42.680;23.324;2022-07-06T05:25:38;95286.38;;;23.00;92.56
13027;BME280;6580;42.680;23.324;2022-07-06T05:28:04;95289.69;;;23.31;90.70
13027;BME280;6580;42.680;23.324;2022-07-06T05:30:31;95289.72;;;23.88;86.64
13027;BME280;6580;42.680;23.324;2022-07-06T05:32:58;95282.47;;;24.28;84.30
13027;BME280;6580;42.680;23.324;2022-07-06T05:35:25;95284.81;;;25.03;77.40
13027;BME280;6580;42.680;23.324;2022-07-06T05:37:51;95276.84;;;24.58;77.26
13027;BME280;6580;42.680;23.324;2022-07-06T05:40:20;95284.97;;;24.97;78.29
13027;BME280;6580;42.680;23.324;2022-07-06T05:42:46;95292.50;;;25.67;72.87
13027;BME280;6580;42.680;23.324;2022-07-06T05:45:13;95295.06;;;26.06;68.73
13027;BME280;6580;42.680;23.324;2022-07-06T05:47:40;95292.69;;;25.93;68.08
13027;BME280;6580;42.680;23.324;2022-07-06T05:50:27;95295.22;;;26.38;65.78
13027;BME280;6580;42.680;23.324;2022-07-06T05:52:59;95288.28;;;26.68;64.43
13027;BME280;6580;42.680;23.324;2022-07-06T05:55:27;95291.94;;;27.00;63.27
13027;BME280;6580;42.680;23.324;2022-07-06T05:57:54;95293.88;;;27.84;58.98
13027;BME280;6580;42.680;23.324;2022-07-06T06:00:26;95289.47;;;28.19;57.04
13027;BME280;6580;42.680;23.324;2022-07-06T06:02:53;95281.56;;;27.86;59.00
13027;BME280;6580;42.680;23.324;2022-07-06T06:05:20;95288.22;;;27.64;59.40
13027;BME280;6580;42.680;23.324;2022-07-06T06:07:47;95288.34;;;26.73;62.26
13027;BME280;6580;42.680;23.324;2022-07-06T06:10:17;95298.38;;;26.68;63.89
13027;BME280;6580;42.680;23.324;2022-07-06T06:12:45;95290.31;;;26.78;63.83
13027;BME280;6580;42.680;23.324;2022-07-06T06:15:12;95295.25;;;26.21;64.66
13027;BME280;6580;42.680;23.324;2022-07-06T06:17:40;95293.66;;;25.22;70.13
13027;BME280;6580;42.680;23.324;2022-07-06T06:20:11;95294.38;;;24.89;73.18
13027;BME280;6580;42.680;23.324;2022-07-06T06:22:53;95289.84;;;25.23;72.37
13027;BME280;6580;42.680;23.324;2022-07-06T06:25:29;95291.19;;;25.37;70.98
13027;BME280;6580;42.680;23.324;2022-07-06T06:28:02;95284.78;;;24.87;74.79
13027;BME280;6580;42.680;23.324;2022-07-06T06:30:29;95291.91;;;24.88;74.02
13027;BME280;6580;42.680;23.324;2022-07-06T06:33:06;95286.97;;;25.01;73.90
13027;BME280;6580;42.680;23.324;2022-07-06T06:35:33;95293.66;;;25.22;72.55
13027;BME280;6580;42.680;23.324;2022-07-06T06:38:01;95289.84;;;24.95;72.65
13027;BME280;6580;42.680;23.324;2022-07-06T06:40:28;95290.34;;;25.20;72.40
13027;BME280;6580;42.680;23.324;2022-07-06T06:42:54;95288.59;;;25.02;72.06
13027;BME280;6580;42.680;23.324;2022-07-06T06:45:22;95276.50;;;24.82;72.34
13027;BME280;6580;42.680;23.324;2022-07-06T06:47:49;95278.88;;;25.34;72.42
13027;BME280;6580;42.680;23.324;2022-07-06T06:50:16;95273.00;;;25.91;68.14
13027;BME280;6580;42.680;23.324;2022-07-06T06:52:43;95277.03;;;26.43;66.42
13027;BME280;6580;42.680;23.324;2022-07-06T06:55:10;95270.31;;;26.72;64.36
13027;BME280;6580;42.680;23.324;2022-07-06T06:57:36;95255.25;;;26.96;62.93
13027;BME280;6580;42.680;23.324;2022-07-06T07:00:04;95263.28;;;27.29;60.47
13027;BME280;6580;42.680;23.324;2022-07-06T07:02:33;95268.06;;;27.17;61.04
13027;BME280;6580;42.680;23.324;2022-07-06T07:05:00;95271.09;;;26.73;62.57
13027;BME280;6580;42.680;23.324;2022-07-06T07:07:26;95274.88;;;26.45;63.95
13027;BME280;6580;42.680;23.324;2022-07-06T07:09:53;95271.31;;;26.66;62.80
13027;BME280;6580;42.680;23.324;2022-07-06T07:12:20;95267.41;;;26.41;63.50
13027;BME280;6580;42.680;23.324;2022-07-06T07:14:47;95276.53;;;26.46;62.88
13027;BME280;6580;42.680;23.324;2022-07-06T07:17:14;95279.44;;;25.85;65.34
13027;BME280;6580;42.680;23.324;2022-07-06T07:19:42;95278.34;;;25.21;67.23
13027;BME280;6580;42.680;23.324;2022-07-06T07:22:09;95273.38;;;25.18;69.35
13027;BME280;6580;42.680;23.324;2022-07-06T07:24:36;95280.75;;;25.34;68.60
13027;BME280;6580;42.680;23.324;2022-07-06T07:27:03;95276.81;;;25.58;68.02
13027;BME280;6580;42.680;23.324;2022-07-06T07:29:30;95278.53;;;26.34;65.47
13027;BME280;6580;42.680;23.324;2022-07-06T07:31:57;95275.91;;;26.01;65.17
13027;BME280;6580;42.680;23.324;2022-07-06T07:34:24;95276.19;;;26.64;63.72
13027;BME280;6580;42.680;23.324;2022-07-06T07:36:52;95266.53;;;26.78;62.68
13027;BME280;6580;42.680;23.324;2022-07-06T07:39:19;95260.69;;;26.96;62.41
13027;BME280;6580;42.680;23.324;2022-07-06T07:41:46;95261.66;;;26.59;60.94
13027;BME280;6580;42.680;23.324;2022-07-06T07:44:15;95265.53;;;25.71;64.57
13027;BME280;6580;42.680;23.324;2022-07-06T07:46:42;95271.25;;;25.85;65.45
13027;BME280;6580;42.680;23.324;2022-07-06T07:49:09;95267.03;;;26.32;63.48
13027;BME280;6580;42.680;23.324;2022-07-06T07:51:36;95255.09;;;27.34;59.97
13027;BME280;6580;42.680;23.324;2022-07-06T07:54:05;95260.53;;;28.28;54.42
13027;BME280;6580;42.680;23.324;2022-07-06T07:56:32;95263.59;;;28.36;53.96
13027;BME280;6580;42.680;23.324;2022-07-06T07:59:00;95257.13;;;29.98;49.68
13027;BME280;6580;42.680;23.324;2022-07-06T08:01:27;95260.53;;;30.73;45.72
13027;BME280;6580;42.680;23.324;2022-07-06T08:03:54;95253.50;;;29.23;49.30
13027;BME280;6580;42.680;23.324;2022-07-06T08:06:21;95249.72;;;29.44;49.73
13027;BME280;6580;42.680;23.324;2022-07-06T08:08:48;95247.53;;;29.66;48.97
13027;BME280;6580;42.680;23.324;2022-07-06T08:11:17;95259.47;;;29.00;50.16
13027;BME280;6580;42.680;23.324;2022-07-06T08:13:43;95257.28;;;29.12;50.99
13027;BME280;6580;42.680;23.324;2022-07-06T08:16:10;95254.56;;;30.56;47.96
13027;BME280;6580;42.680;23.324;2022-07-06T08:18:37;95258.75;;;29.59;47.57
13027;BME280;6580;42.680;23.324;2022-07-06T08:21:04;95269.41;;;30.55;46.56
13027;BME280;6580;42.680;23.324;2022-07-06T08:23:31;95246.97;;;31.40;43.26
13027;BME280;6580;42.680;23.324;2022-07-06T08:26:00;95248.00;;;32.21;42.22
13027;BME280;6580;42.680;23.324;2022-07-06T08:28:28;95247.31;;;33.27;38.48
13027;BME280;6580;42.680;23.324;2022-07-06T08:30:55;95258.25;;;32.67;40.19
13027;BME280;6580;42.680;23.324;2022-07-06T08:33:22;95257.16;;;33.88;37.31
13027;BME280;6580;42.680;23.324;2022-07-06T08:35:49;95244.44;;;34.38;36.38
13027;BME280;6580;42.680;23.324;2022-07-06T08:38:18;95249.81;;;33.60;37.84
13027;BME280;6580;42.680;23.324;2022-07-06T08:40:48;95247.78;;;32.40;40.89
13027;BME280;6580;42.680;23.324;2022-07-06T08:43:16;95245.81;;;32.46;40.70
13027;BME280;6580;42.680;23.324;2022-07-06T08:45:49;95246.75;;;32.03;41.88
13027;BME280;6580;42.680;23.324;2022-07-06T08:48:18;95226.75;;;31.93;41.27
13027;BME280;6580;42.680;23.324;2022-07-06T08:50:45;95233.50;;;31.77;41.95
13027;BME280;6580;42.680;23.324;2022-07-06T08:53:12;95243.44;;;31.73;41.29
13027;BME280;6580;42.680;23.324;2022-07-06T08:55:38;95243.28;;;31.93;41.62
13027;BME280;6580;42.680;23.324;2022-07-06T08:58:07;95245.50;;;31.91;40.28
13027;BME280;6580;42.680;23.324;2022-07-06T09:00:34;95241.81;;;31.33;42.83
13027;BME280;6580;42.680;23.324;2022-07-06T09:03:04;95238.81;;;31.25;43.07
13027;BME280;6580;42.680;23.324;2022-07-06T09:05:32;95247.78;;;29.79;46.43
13027;BME280;6580;42.680;23.324;2022-07-06T09:08:03;95246.19;;;28.72;49.68
13027;BME280;6580;42.680;23.324;2022-07-06T09:10:30;95252.91;;;29.06;49.65
13027;BME280;6580;42.680;23.324;2022-07-06T09:13:04;95253.44;;;29.13;48.95
13027;BME280;6580;42.680;23.324;2022-07-06T09:15:33;95250.75;;;28.00;52.14
13027;BME280;6580;42.680;23.324;2022-07-06T09:18:04;95236.41;;;27.88;53.98
13027;BME280;6580;42.680;23.324;2022-07-06T09:20:32;95250.84;;;28.72;52.39
13027;BME280;6580;42.680;23.324;2022-07-06T09:23:00;95249.56;;;27.91;54.10
13027;BME280;6580;42.680;23.324;2022-07-06T09:25:28;95226.28;;;29.06;51.05
13027;BME280;6580;42.680;23.324;2022-07-06T09:27:56;95246.69;;;29.85;48.35
13027;BME280;6580;42.680;23.324;2022-07-06T09:30:26;95244.13;;;29.04;49.55
13027;BME280;6580;42.680;23.324;2022-07-06T09:32:54;95236.56;;;28.13;52.89
13027;BME280;6580;42.680;23.324;2022-07-06T09:35:25;95233.31;;;28.78;51.46
13027;BME280;6580;42.680;23.324;2022-07-06T09:38:03;95238.75;;;28.11;52.85
13027;BME280;6580;42.680;23.324;2022-07-06T09:40:32;95249.78;;;28.78;51.64
13027;BME280;6580;42.680;23.324;2022-07-06T09:43:14;95250.03;;;28.20;53.16
13027;BME280;6580;42.680;23.324;2022-07-06T09:45:42;95238.88;;;28.93;51.40
13027;BME280;6580;42.680;23.324;2022-07-06T09:48:12;95235.66;;;28.44;53.14
13027;BME280;6580;42.680;23.324;2022-07-06T09:50:43;95232.50;;;28.72;52.78
13027;BME280;6580;42.680;23.324;2022-07-06T09:53:10;95232.28;;;27.55;54.75
13027;BME280;6580;42.680;23.324;2022-07-06T09:55:37;95221.13;;;27.25;56.62
13027;BME280;6580;42.680;23.324;2022-07-06T09:58:17;95228.94;;;27.74;55.83
13027;BME280;6580;42.680;23.324;2022-07-06T10:00:45;95230.72;;;29.17;50.75
13027;BME280;6580;42.680;23.324;2022-07-06T10:03:13;95190.38;;;29.78;47.95
13027;BME280;6580;42.680;23.324;2022-07-06T10:05:43;95230.91;;;30.55;46.85
13027;BME280;6580;42.680;23.324;2022-07-06T10:08:12;95236.78;;;29.79;46.73
13027;BME280;6580;42.680;23.324;2022-07-06T10:10:41;95233.16;;;30.33;46.98
13027;BME280;6580;42.680;23.324;2022-07-06T10:13:08;95224.44;;;29.82;47.34
13027;BME280;6580;42.680;23.324;2022-07-06T10:15:39;95226.44;;;30.69;45.64
13027;BME280;6580;42.680;23.324;2022-07-06T10:18:08;95204.81;;;30.38;45.64
13027;BME280;6580;42.680;23.324;2022-07-06T10:20:37;95223.09;;;32.30;42.30
13027;BME280;6580;42.680;23.324;2022-07-06T10:23:08;95216.63;;;32.87;40.00
13027;BME280;6580;42.680;23.324;2022-07-06T10:25:35;95206.75;;;33.78;38.51
13027;BME280;6580;42.680;23.324;2022-07-06T10:28:02;95215.34;;;32.56;39.90
13027;BME280;6580;42.680;23.324;2022-07-06T10:30:37;95210.59;;;33.03;39.44
13027;BME280;6580;42.680;23.324;2022-07-06T10:33:04;95200.97;;;33.24;39.02
13027;BME280;6580;42.680;23.324;2022-07-06T10:35:31;95195.63;;;34.15;37.48
13027;BME280;6580;42.680;23.324;2022-07-06T10:38:07;95218.59;;;33.65;37.08
13027;BME280;6580;42.680;23.324;2022-07-06T10:40:36;95206.16;;;33.07;38.08
13027;BME280;6580;42.680;23.324;2022-07-06T10:43:22;95206.84;;;32.01;40.35
13027;BME280;6580;42.680;23.324;2022-07-06T10:45:51;95213.38;;;32.05;40.44
13027;BME280;6580;42.680;23.324;2022-07-06T10:48:20;95201.72;;;32.88;38.45
13027;BME280;6580;42.680;23.324;2022-07-06T10:50:52;95199.72;;;32.93;38.42
13027;BME280;6580;42.680;23.324;2022-07-06T10:53:25;95208.13;;;33.62;37.96
13027;BME280;6580;42.680;23.324;2022-07-06T10:55:54;95200.88;;;33.98;36.21
13027;BME280;6580;42.680;23.324;2022-07-06T10:58:39;95207.84;;;31.05;41.57
13027;BME280;6580;42.680;23.324;2022-07-06T11:01:07;95208.53;;;30.77;42.05
13027;BME280;6580;42.680;23.324;2022-07-06T11:03:40;95204.34;;;30.89;41.14
13027;BME280;6580;42.680;23.324;2022-07-06T11:06:12;95206.09;;;30.65;42.34
13027;BME280;6580;42.680;23.324;2022-07-06T11:08:57;95200.16;;;30.97;41.85
13027;BME280;6580;42.680;23.324;2022-07-06T11:11:26;95208.44;;;31.40;40.95
13027;BME280;6580;42.680;23.324;2022-07-06T11:14:05;95199.50;;;30.66;40.76
13027;BME280;6580;42.680;23.324;2022-07-06T11:16:34;95197.25;;;31.21;40.42
13027;BME280;6580;42.680;23.324;2022-07-06T11:19:13;95192.97;;;32.06;38.73
13027;BME280;6580;42.680;23.324;2022-07-06T11:22:06;95191.16;;;33.13;37.07
13027;BME280;6580;42.680;23.324;2022-07-06T11:24:36;95187.22;;;33.19;37.38
13027;BME280;6580;42.680;23.324;2022-07-06T11:27:04;95188.13;;;33.83;35.77
13027;BME280;6580;42.680;23.324;2022-07-06T11:29:35;95167.56;;;34.48;34.96
13027;BME280;6580;42.680;23.324;2022-07-06T11:32:06;95193.09;;;34.00;34.33
13027;BME280;6580;42.680;23.324;2022-07-06T11:34:37;95182.84;;;32.29;37.46
13027;BME280;6580;42.680;23.324;2022-07-06T11:37:06;95181.88;;;33.59;36.37
13027;BME280;6580;42.680;23.324;2022-07-06T11:39:36;95177.91;;;34.42;34.60
13027;BME280;6580;42.680;23.324;2022-07-06T11:42:05;95172.56;;;35.00;33.26
13027;BME280;6580;42.680;23.324;2022-07-06T11:44:34;95174.25;;;34.02;34.19
13027;BME280;6580;42.680;23.324;2022-07-06T11:47:02;95171.16;;;33.90;34.43
13027;BME280;6580;42.680;23.324;2022-07-06T11:49:32;95153.53;;;34.71;33.63
13027;BME280;6580;42.680;23.324;2022-07-06T11:52:00;95156.06;;;33.50;35.55
13027;BME280;6580;42.680;23.324;2022-07-06T11:54:27;95164.28;;;31.83;37.01
13027;BME280;6580;42.680;23.324;2022-07-06T11:56:57;95160.00;;;32.47;37.26
13027;BME280;6580;42.680;23.324;2022-07-06T11:59:26;95147.34;;;32.88;36.23
13027;BME280;6580;42.680;23.324;2022-07-06T12:01:58;95151.25;;;32.40;38.37
13027;BME280;6580;42.680;23.324;2022-07-06T12:04:27;95145.22;;;33.54;35.49
13027;BME280;6580;42.680;23.324;2022-07-06T12:06:54;95147.59;;;34.38;34.59
13027;BME280;6580;42.680;23.324;2022-07-06T12:09:21;95156.78;;;33.24;34.59
13027;BME280;6580;42.680;23.324;2022-07-06T12:11:50;95150.09;;;33.43;35.11
13027;BME280;6580;42.680;23.324;2022-07-06T12:14:20;95146.47;;;33.80;34.41
13027;BME280;6580;42.680;23.324;2022-07-06T12:16:48;95145.06;;;35.03;32.99
13027;BME280;6580;42.680;23.324;2022-07-06T12:19:16;95121.34;;;34.48;32.22
13027;BME280;6580;42.680;23.324;2022-07-06T12:21:47;95152.63;;;34.36;33.17
13027;BME280;6580;42.680;23.324;2022-07-06T12:24:25;95155.63;;;34.07;33.39
13027;BME280;6580;42.680;23.324;2022-07-06T12:26:54;95146.59;;;32.18;36.25
13027;BME280;6580;42.680;23.324;2022-07-06T12:29:23;95149.88;;;31.29;38.12
13027;BME280;6580;42.680;23.324;2022-07-06T12:31:51;95153.56;;;31.15;38.71
13027;BME280;6580;42.680;23.324;2022-07-06T12:34:20;95143.75;;;30.46;39.70
13027;BME280;6580;42.680;23.324;2022-07-06T12:36:50;95153.69;;;30.37;40.77
13027;BME280;6580;42.680;23.324;2022-07-06T12:39:18;95138.13;;;30.71;40.28
13027;BME280;6580;42.680;23.324;2022-07-06T12:41:48;95148.25;;;31.62;39.93
13027;BME280;6580;42.680;23.324;2022-07-06T12:44:18;95142.53;;;32.10;38.35
13027;BME280;6580;42.680;23.324;2022-07-06T12:46:46;95140.19;;;31.94;37.82
13027;BME280;6580;42.680;23.324;2022-07-06T12:49:16;95140.06;;;30.75;41.01
13027;BME280;6580;42.680;23.324;2022-07-06T12:51:55;95135.06;;;30.77;40.36
13027;BME280;6580;42.680;23.324;2022-07-06T12:54:29;95132.63;;;30.76;41.07
13027;BME280;6580;42.680;23.324;2022-07-06T12:57:12;95121.59;;;31.19;39.65
13027;BME280;6580;42.680;23.324;2022-07-06T12:59:41;95128.69;;;31.30;39.10
13027;BME280;6580;42.680;23.324;2022-07-06T13:02:17;95117.13;;;30.85;39.91
13027;BME280;6580;42.680;23.324;2022-07-06T13:04:54;95131.44;;;30.87;39.98